Terminal Aerodrome Forecast
Issued by NWS

Home | Current Version | Previous Version | Text Only | Print | Product List | Glossary On
Versions: 1 2 3 4 5 6 7 8 9 10 11 12 13
903
FTUS44 KSJT 301123
TAFBBD
TAF
KBBD 301123Z 3012/0112 VRB06KT P6SM SCT100
     FM301500 33006KT P6SM SKC
     FM302200 08006KT P6SM FEW250
      AMD NOT SKED=

USA.gov is the U.S. government's official web portal to all federal, state and local government web resources and services.